Tappahannock, Virginia
Current Conditions -  °F | °C
As of 7:15 AM on Sunday 25 Jan 2015 (Local Time) from KXSA Reporting Station
Clear Clear  
Wind Chill: 29°   Ceiling: Unl
Heat Index: 33°   Visibility: 10mi
Dew Point: 25°   Wind: 5mph
Humidity: 72%   Direction: 210°SSW
Pressure: 29.87"   Gusts: NA
Location:  37.93°N, 76.86°W
Report Text: KXSA 251215Z AUTO 21004KT 10SM CLR 01/M04 A2987 RMK AO2 T00081037
Loading
Personal Weather Stations






























Interactive Weather Map New forecast layout! Learn more

10-Day Weather Forecast

Advertisements
Track Severe Weather on mobile